Terminal Aerodrome Forecast
Issued by NWS

Home | Current Version | Previous Version | Text Only | Print | Product List | Glossary On
Versions: 1 2 3 4 5 6 7 8 9 10 11 12 13
000
FTUS42 KTBW 291100
TAFLAL
TAF
KLAL 291140Z 2912/3012 VRB04KT P6SM FEW020 SCT250
     FM291400 17005KT P6SM SCT025 SCT250
      TEMPO 2914/2917 BKN025
     FM291700 18006KT P6SM VCTS SCT030CB BKN080
     FM300300 VRB06KT P6SM SCT060 BKN250
     FM300600 10005KT P6SM FEW110 SCT250=

USA.gov is the U.S. government's official web portal to all federal, state and local government web resources and services.